You are listening to:
YBCG Approach - Gold Coast City, Queensland, Australia

YBCG 060930Z AUTO 31004KT 9999 // NCD 14/11 Q1008 RF00.0/023.8

If stream doesn't start automatically press the play button
If stream stops then reload player then press play